createdAt,value
2023-04-01T00:01:04.770Z,97540.88
2023-04-01T00:03:34.861Z,97550.03
2023-04-01T00:06:05.033Z,97555.06
2023-04-01T00:08:34.707Z,97550.38
2023-04-01T00:11:04.638Z,97554.19
2023-04-01T00:13:34.306Z,97544.31
2023-04-01T00:16:19.904Z,97540.22
2023-04-01T00:18:51.189Z,97544.34
2023-04-01T00:21:22.968Z,97532.53
2023-04-01T00:23:53.178Z,97531.41
2023-04-01T00:26:23.572Z,97528.38
2023-04-01T00:28:54.324Z,97533.09
2023-04-01T00:31:26.839Z,97538.53
2023-04-01T00:33:57.423Z,97549.81
2023-04-01T00:36:27.213Z,97537.81
2023-04-01T00:38:57.279Z,97545.44
2023-04-01T00:41:27.321Z,97552.00
2023-04-01T00:44:12.041Z,97549.03
2023-04-01T00:46:44.360Z,97550.38
2023-04-01T00:49:14.221Z,97545.69
2023-04-01T00:51:46.161Z,97544.88
2023-04-01T00:54:18.084Z,97549.66
2023-04-01T00:56:52.524Z,97545.00
2023-04-01T00:59:26.951Z,97549.78
2023-04-01T01:01:59.262Z,97546.53
2023-04-01T01:04:31.497Z,97558.56
2023-04-01T01:07:10.998Z,97567.06
2023-04-01T01:09:49.493Z,97560.41
2023-04-01T01:12:24.011Z,97558.72
2023-04-01T01:15:02.225Z,97558.50
2023-04-01T01:17:46.023Z,97555.84
2023-04-01T01:20:37.694Z,97554.50
2023-04-01T01:23:30.179Z,97550.03
2023-04-01T01:26:15.492Z,97552.16
2023-04-01T01:28:56.202Z,97555.88
2023-04-01T01:31:37.829Z,97549.78
2023-04-01T01:34:19.589Z,97539.84
2023-04-01T01:36:58.743Z,97538.75
2023-04-01T01:39:32.464Z,97539.66
2023-04-01T01:42:06.794Z,97551.97
2023-04-01T01:44:38.678Z,97554.13
2023-04-01T01:47:09.487Z,97553.72
2023-04-01T01:49:40.789Z,97545.19
2023-04-01T01:52:13.110Z,97544.31
2023-04-01T01:54:51.633Z,97543.03
2023-04-01T01:57:27.531Z,97531.78
2023-04-01T02:00:05.307Z,97526.63
2023-04-01T02:02:43.518Z,97537.72
2023-04-01T02:05:16.778Z,97537.22
2023-04-01T02:07:55.160Z,97545.97
2023-04-01T02:10:28.780Z,97548.28
2023-04-01T02:13:05.058Z,97551.13
2023-04-01T02:15:38.981Z,97548.94
2023-04-01T02:18:08.935Z,97550.91
2023-04-01T02:20:40.197Z,97546.63
2023-04-01T02:23:14.243Z,97552.38
2023-04-01T02:25:46.832Z,97551.13
2023-04-01T02:28:21.029Z,97537.81
2023-04-01T02:30:53.425Z,97550.16
2023-04-01T02:33:24.643Z,97543.31
2023-04-01T02:35:54.545Z,97555.56
2023-04-01T02:38:27.083Z,97548.16
2023-04-01T02:41:02.729Z,97539.72
2023-04-01T02:43:32.428Z,97545.25
2023-04-01T02:46:02.921Z,97557.75
2023-04-01T02:48:32.955Z,97551.63
2023-04-01T02:51:02.733Z,97553.31
2023-04-01T02:53:35.014Z,97573.50
2023-04-01T02:56:04.847Z,97575.72
2023-04-01T02:58:34.556Z,97566.97
2023-04-01T03:01:04.205Z,97582.09
2023-04-01T03:03:34.019Z,97571.41
2023-04-01T03:06:09.422Z,97581.06
2023-04-01T03:08:42.305Z,97582.56
2023-04-01T03:11:13.034Z,97585.81
2023-04-01T03:13:42.865Z,97584.69
2023-04-01T03:16:13.784Z,97572.13
2023-04-01T03:18:43.653Z,97566.31
2023-04-01T03:21:18.262Z,97576.34
2023-04-01T03:23:50.556Z,97558.47
2023-04-01T03:26:21.003Z,97574.78
2023-04-01T03:28:50.789Z,97578.34
2023-04-01T03:31:22.343Z,97579.59
2023-04-01T03:33:56.945Z,97575.28
2023-04-01T03:36:26.764Z,97578.44
2023-04-01T03:38:58.990Z,97583.44
2023-04-01T03:41:39.559Z,97578.94
2023-04-01T03:44:10.303Z,97579.13
2023-04-01T03:46:40.277Z,97576.91
2023-04-01T03:49:12.907Z,97576.16
2023-04-01T03:51:42.774Z,97577.69
2023-04-01T03:54:15.383Z,97587.09
2023-04-01T03:56:46.769Z,97582.75
2023-04-01T03:59:16.927Z,97579.94
2023-04-01T04:01:46.877Z,97589.81
2023-04-01T04:04:17.110Z,97590.94
2023-04-01T04:06:46.894Z,97586.22
2023-04-01T04:09:19.318Z,97592.69
2023-04-01T04:11:49.022Z,97590.19
2023-04-01T04:14:19.447Z,97600.00
2023-04-01T04:16:50.452Z,97593.50
2023-04-01T04:19:20.162Z,97597.63
2023-04-01T04:21:50.803Z,97599.66
2023-04-01T04:24:23.380Z,97592.69
2023-04-01T04:27:07.680Z,97600.53
2023-04-01T04:29:40.074Z,97586.72
2023-04-01T04:32:09.885Z,97597.56
2023-04-01T04:34:39.886Z,97604.44
2023-04-01T04:37:09.552Z,97599.75
2023-04-01T04:39:42.669Z,97609.38
2023-04-01T04:42:12.393Z,97601.81
2023-04-01T04:44:42.945Z,97597.38
2023-04-01T04:47:12.681Z,97597.16
2023-04-01T04:49:42.471Z,97602.28
2023-04-01T04:52:13.366Z,97601.00
2023-04-01T04:54:45.748Z,97605.25
2023-04-01T04:57:15.634Z,97598.06
2023-04-01T04:59:55.777Z,97605.78
2023-04-01T05:02:47.325Z,97594.53
2023-04-01T05:05:17.174Z,97614.06
2023-04-01T05:07:47.162Z,97626.41
2023-04-01T05:10:19.791Z,97625.91
2023-04-01T05:12:49.488Z,97618.34
2023-04-01T05:15:22.328Z,97616.53
2023-04-01T05:17:52.485Z,97632.69
2023-04-01T05:20:22.409Z,97630.34
2023-04-01T05:22:52.105Z,97631.34
2023-04-01T05:25:24.990Z,97631.56
2023-04-01T05:27:55.460Z,97650.13
2023-04-01T05:30:25.422Z,97655.91
2023-04-01T05:33:07.116Z,97647.53
2023-04-01T05:35:36.998Z,97656.34
2023-04-01T05:38:08.177Z,97659.38
2023-04-01T05:40:40.761Z,97663.50
2023-04-01T05:43:10.472Z,97665.97
2023-04-01T05:45:40.457Z,97661.66
2023-04-01T05:48:32.845Z,97662.63
2023-04-01T05:51:02.785Z,97678.13
2023-04-01T05:53:32.585Z,97672.91
2023-04-01T05:56:10.505Z,97680.31
2023-04-01T05:58:44.067Z,97677.19
2023-04-01T06:01:16.727Z,97663.25
2023-04-01T06:03:47.975Z,97671.44
2023-04-01T06:06:19.940Z,97667.97
2023-04-01T06:08:49.845Z,97663.53
2023-04-01T06:11:32.698Z,97668.31
2023-04-01T06:14:14.297Z,97666.38
2023-04-01T06:16:59.215Z,97669.75
2023-04-01T06:19:35.480Z,97676.25
2023-04-01T06:22:29.077Z,97677.28
2023-04-01T06:25:18.598Z,97682.03
2023-04-01T06:28:05.083Z,97684.03
2023-04-01T06:30:44.652Z,97671.59
2023-04-01T06:33:46.993Z,97676.63
2023-04-01T06:36:39.531Z,97677.44
2023-04-01T06:39:27.336Z,97675.69
2023-04-01T06:42:19.561Z,97682.00
2023-04-01T06:45:07.527Z,97673.16
2023-04-01T06:48:06.588Z,97679.88
2023-04-01T06:51:06.359Z,97683.91
2023-04-01T06:54:01.585Z,97671.72
2023-04-01T06:56:58.451Z,97672.31
2023-04-01T06:59:31.799Z,97652.13
2023-04-01T07:02:13.809Z,97657.03
2023-04-01T07:04:48.102Z,97658.00
2023-04-01T07:07:25.237Z,97657.13
2023-04-01T07:10:02.940Z,97661.84
2023-04-01T07:12:44.677Z,97664.84
2023-04-01T07:15:23.143Z,97671.94
2023-04-01T07:17:59.304Z,97663.28
2023-04-01T07:20:33.236Z,97661.22
2023-04-01T07:23:09.636Z,97662.09
2023-04-01T07:26:03.968Z,97660.41
2023-04-01T07:29:02.599Z,97650.47
2023-04-01T07:31:55.370Z,97656.16
2023-04-01T07:34:31.097Z,97649.97
2023-04-01T07:37:04.914Z,97651.81
2023-04-01T07:39:44.649Z,97652.91
2023-04-01T07:42:27.923Z,97658.63
2023-04-01T07:45:08.456Z,97660.44
2023-04-01T07:47:53.502Z,97669.75
2023-04-01T07:50:31.359Z,97670.19
2023-04-01T07:53:13.348Z,97675.00
2023-04-01T07:55:49.254Z,97678.38
2023-04-01T07:58:22.958Z,97681.97
2023-04-01T08:00:59.250Z,97673.59
2023-04-01T08:03:46.752Z,97693.78
2023-04-01T08:06:26.757Z,97690.72
2023-04-01T08:09:08.134Z,97695.75
2023-04-01T08:12:07.931Z,97693.97
2023-04-01T08:15:15.462Z,97693.28
2023-04-01T08:18:25.307Z,97700.88
2023-04-01T08:20:59.885Z,97714.06
2023-04-01T08:23:36.313Z,97699.88
2023-04-01T08:26:10.558Z,97725.28
2023-04-01T08:28:48.533Z,97715.06
2023-04-01T08:31:22.606Z,97718.19
2023-04-01T08:33:56.817Z,97723.91
2023-04-01T08:36:32.035Z,97716.84
2023-04-01T08:39:20.185Z,97737.84
2023-04-01T08:42:22.886Z,97725.78
2023-04-01T08:45:19.838Z,97725.34
2023-04-01T08:48:18.424Z,97722.31
2023-04-01T08:51:24.612Z,97717.03
2023-04-01T08:54:18.246Z,97724.97
2023-04-01T08:57:02.354Z,97735.97
2023-04-01T08:59:51.164Z,97735.78
2023-04-01T09:03:26.697Z,97735.31
2023-04-01T09:06:24.671Z,97732.50
2023-04-01T09:09:09.774Z,97738.34
2023-04-01T09:12:03.103Z,97730.22
2023-04-01T09:15:02.104Z,97736.06
2023-04-01T09:17:56.025Z,97729.72
2023-04-01T09:20:43.953Z,97733.34
2023-04-01T09:23:38.958Z,97737.59
2023-04-01T09:26:21.742Z,97741.75
2023-04-01T09:29:05.962Z,97735.56
2023-04-01T09:31:52.917Z,97746.47
2023-04-01T09:34:56.278Z,97750.03
2023-04-01T09:37:39.316Z,97741.84
2023-04-01T09:40:26.552Z,97754.66
2023-04-01T09:43:18.843Z,97748.59
2023-04-01T09:46:04.462Z,97749.94
2023-04-01T09:48:46.302Z,97751.66
2023-04-01T09:51:31.075Z,97745.00
2023-04-01T09:54:15.871Z,97752.78
2023-04-01T09:57:20.761Z,97744.69
2023-04-01T10:00:24.124Z,97759.56
2023-04-01T10:03:38.796Z,97764.75
2023-04-01T10:06:39.544Z,97760.88
2023-04-01T10:09:56.383Z,97767.47
2023-04-01T10:13:00.502Z,97762.34
2023-04-01T10:16:05.337Z,97757.81
2023-04-01T10:19:00.240Z,97765.94
2023-04-01T10:22:03.035Z,97772.16
2023-04-01T10:25:06.451Z,97770.50
2023-04-01T10:27:59.538Z,97760.06
2023-04-01T10:31:23.749Z,97759.56
2023-04-01T10:34:30.076Z,97768.00
2023-04-01T10:37:00.731Z,97757.03
2023-04-01T10:40:21.189Z,97766.09
2023-04-01T10:44:00.884Z,97760.41
2023-04-01T10:47:11.888Z,97767.94
2023-04-01T10:49:56.536Z,97759.13
2023-04-01T10:53:07.267Z,97770.88
2023-04-01T10:55:57.802Z,97763.31
2023-04-01T10:59:18.098Z,97764.84
2023-04-01T11:02:42.551Z,97766.69
2023-04-01T11:05:58.929Z,97767.97
2023-04-01T11:09:11.222Z,97771.63
2023-04-01T11:11:58.741Z,97773.13
2023-04-01T11:15:04.176Z,97769.19
2023-04-01T11:18:02.220Z,97776.00
2023-04-01T11:21:13.739Z,97771.84
2023-04-01T11:24:21.988Z,97780.59
2023-04-01T11:27:43.893Z,97781.06
2023-04-01T11:30:32.852Z,97781.31
2023-04-01T11:33:07.064Z,97778.25
2023-04-01T11:35:46.632Z,97775.38
2023-04-01T11:38:30.966Z,97770.94
2023-04-01T11:41:06.774Z,97780.13
2023-04-01T11:44:18.874Z,97782.94
2023-04-01T11:47:23.082Z,97783.63
2023-04-01T11:50:03.721Z,97788.59
2023-04-01T11:53:00.657Z,97794.97
2023-04-01T11:55:40.042Z,97799.47
2023-04-01T11:58:31.458Z,97803.53
2023-04-01T12:01:15.129Z,97801.13
2023-04-01T12:04:06.156Z,97800.25
2023-04-01T12:06:42.874Z,97803.78
2023-04-01T12:09:22.908Z,97807.59
2023-04-01T12:12:06.954Z,97810.00
2023-04-01T12:14:44.563Z,97806.44
2023-04-01T12:17:33.068Z,97821.22
2023-04-01T12:20:17.648Z,97821.00
2023-04-01T12:22:53.486Z,97820.19
2023-04-01T12:25:40.441Z,97834.59
2023-04-01T12:28:26.403Z,97827.81
2023-04-01T12:31:10.605Z,97830.53
2023-04-01T12:34:07.318Z,97840.34
2023-04-01T12:36:49.920Z,97840.41
2023-04-01T12:39:48.460Z,97852.03
2023-04-01T12:42:33.283Z,97853.78
2023-04-01T12:45:23.171Z,97863.47
2023-04-01T12:48:23.552Z,97872.88
2023-04-01T12:51:22.015Z,97879.81
2023-04-01T12:54:22.186Z,97903.41
2023-04-01T12:57:08.013Z,97904.44
2023-04-01T13:00:03.754Z,97903.81
2023-04-01T13:02:47.410Z,97909.97
2023-04-01T13:05:40.014Z,97904.97
2023-04-01T13:08:28.448Z,97907.13
2023-04-01T13:11:12.592Z,97905.59
2023-04-01T13:14:24.959Z,97911.94
2023-04-01T13:17:05.887Z,97931.41
2023-04-01T13:19:44.741Z,97928.56
2023-04-01T13:22:28.180Z,97941.56
2023-04-01T13:25:06.959Z,97946.84
2023-04-01T13:27:42.485Z,97944.53
2023-04-01T13:30:28.441Z,97948.31
2023-04-01T13:33:04.819Z,97939.72
2023-04-01T13:35:44.447Z,97943.06
2023-04-01T13:38:35.616Z,97949.97
2023-04-01T13:41:15.786Z,97954.38
2023-04-01T13:43:51.916Z,97950.31
2023-04-01T13:46:43.722Z,97945.56
2023-04-01T13:49:44.526Z,97949.41
2023-04-01T13:52:39.789Z,97953.72
2023-04-01T13:55:26.321Z,97965.00
2023-04-01T13:58:15.028Z,97959.09
2023-04-01T14:00:58.171Z,97963.47
2023-04-01T14:03:38.313Z,97970.25
2023-04-01T14:06:22.342Z,97972.50
2023-04-01T14:09:35.498Z,97990.34
2023-04-01T14:12:10.829Z,97989.22
2023-04-01T14:14:55.154Z,97996.66
2023-04-01T14:17:51.068Z,98006.19
2023-04-01T14:20:41.671Z,98007.75
2023-04-01T14:23:43.769Z,98006.31
2023-04-01T14:26:43.794Z,98020.84
2023-04-01T14:29:29.054Z,98020.72
2023-04-01T14:32:10.371Z,98022.47
2023-04-01T14:34:56.899Z,98020.13
2023-04-01T14:37:44.374Z,98015.53
2023-04-01T14:40:26.188Z,98025.94
2023-04-01T14:43:23.540Z,98035.56
2023-04-01T14:46:12.232Z,98032.00
2023-04-01T14:48:55.001Z,98048.38
2023-04-01T14:51:34.881Z,98050.88
2023-04-01T14:54:10.418Z,98052.31
2023-04-01T14:56:44.050Z,98067.22
2023-04-01T14:59:18.873Z,98072.19
2023-04-01T15:01:54.754Z,98076.16
2023-04-01T15:04:47.461Z,98087.50
2023-04-01T15:07:47.382Z,98079.47
2023-04-01T15:10:47.081Z,98094.19
2023-04-01T15:13:18.944Z,98097.78
2023-04-01T15:16:03.540Z,98102.34
2023-04-01T15:18:43.544Z,98100.47
2023-04-01T15:21:29.295Z,98096.97
2023-04-01T15:24:06.631Z,98111.00
2023-04-01T15:26:51.284Z,98113.13
2023-04-01T15:29:34.297Z,98123.19
2023-04-01T15:32:08.867Z,98122.31
2023-04-01T15:34:49.811Z,98137.47
2023-04-01T15:37:31.077Z,98144.56
2023-04-01T15:40:08.112Z,98151.06
2023-04-01T15:42:58.098Z,98158.69
2023-04-01T15:45:40.554Z,98157.34
2023-04-01T15:48:27.482Z,98164.94
2023-04-01T15:51:18.672Z,98172.22
2023-04-01T15:54:10.683Z,98177.31
2023-04-01T15:56:55.202Z,98185.94
2023-04-01T15:59:42.777Z,98199.09
2023-04-01T16:02:21.722Z,98204.19
2023-04-01T16:04:58.850Z,98217.94
2023-04-01T16:07:45.710Z,98208.25
2023-04-01T16:10:38.529Z,98223.63
2023-04-01T16:13:26.760Z,98220.84
2023-04-01T16:16:10.727Z,98231.97
2023-04-01T16:18:53.281Z,98230.25
2023-04-01T16:21:38.012Z,98240.25
2023-04-01T16:24:18.939Z,98238.38
2023-04-01T16:26:56.404Z,98247.25
2023-04-01T16:29:34.763Z,98250.44
2023-04-01T16:32:25.417Z,98264.66
2023-04-01T16:35:07.352Z,98264.31
2023-04-01T16:37:44.416Z,98270.13
2023-04-01T16:40:24.960Z,98284.75
2023-04-01T16:43:08.692Z,98286.28
2023-04-01T16:45:44.544Z,98286.69
2023-04-01T16:48:17.243Z,98307.69
2023-04-01T16:50:55.312Z,98303.81
2023-04-01T16:53:35.289Z,98314.78
2023-04-01T16:56:12.672Z,98319.16
2023-04-01T16:58:52.232Z,98330.41
2023-04-01T17:01:28.700Z,98339.97
2023-04-01T17:04:05.293Z,98350.13
2023-04-01T17:06:43.907Z,98361.53
2023-04-01T17:09:29.386Z,98369.44
2023-04-01T17:12:08.676Z,98385.59
2023-04-01T17:14:50.371Z,98393.75
2023-04-01T17:17:32.825Z,98390.50
2023-04-01T17:20:17.811Z,98401.94
2023-04-01T17:22:56.942Z,98416.41
2023-04-01T17:25:42.088Z,98432.44
2023-04-01T17:28:28.568Z,98431.31
2023-04-01T17:31:11.300Z,98445.50
2023-04-01T17:33:59.854Z,98456.16
2023-04-01T17:36:43.233Z,98471.06
2023-04-01T17:39:31.809Z,98467.53
2023-04-01T17:42:08.874Z,98473.81
2023-04-01T17:44:52.737Z,98483.56
2023-04-01T17:47:41.037Z,98491.66
2023-04-01T17:50:26.861Z,98505.25
2023-04-01T17:53:11.808Z,98497.31
2023-04-01T17:55:58.965Z,98506.34
2023-04-01T17:58:35.882Z,98515.53
2023-04-01T18:01:17.546Z,98521.56
2023-04-01T18:04:00.381Z,98529.75
2023-04-01T18:06:39.394Z,98552.06
2023-04-01T18:09:22.220Z,98543.34
2023-04-01T18:12:01.794Z,98552.59
2023-04-01T18:14:57.289Z,98553.09
2023-04-01T18:17:29.661Z,98559.50
2023-04-01T18:20:22.238Z,98570.00
2023-04-01T18:22:59.062Z,98589.81
2023-04-01T18:25:33.834Z,98587.41
2023-04-01T18:28:20.618Z,98587.00
2023-04-01T18:30:57.934Z,98594.41
2023-04-01T18:33:35.201Z,98606.25
2023-04-01T18:36:18.025Z,98617.72
2023-04-01T18:38:53.837Z,98623.66
2023-04-01T18:41:26.673Z,98629.25
2023-04-01T18:44:07.875Z,98638.72
2023-04-01T18:46:43.864Z,98649.47
2023-04-01T18:49:21.248Z,98664.44
2023-04-01T18:52:00.633Z,98667.56
2023-04-01T18:54:33.607Z,98666.88
2023-04-01T18:57:07.997Z,98673.63
2023-04-01T18:59:43.052Z,98682.41
2023-04-01T19:02:29.928Z,98692.78
2023-04-01T19:05:06.602Z,98704.13
2023-04-01T19:07:51.311Z,98707.53
2023-04-01T19:10:30.525Z,98717.28
2023-04-01T19:13:11.088Z,98730.88
2023-04-01T19:15:48.449Z,98727.31
2023-04-01T19:18:34.588Z,98742.66
2023-04-01T19:21:13.123Z,98754.38
2023-04-01T19:24:14.826Z,98763.59
2023-04-01T19:26:50.072Z,98763.31
2023-04-01T19:29:34.030Z,98767.69
2023-04-01T19:32:15.204Z,98780.38
2023-04-01T19:34:57.672Z,98780.44
2023-04-01T19:37:40.156Z,98788.19
2023-04-01T19:40:36.285Z,98801.25
2023-04-01T19:43:14.417Z,98815.06
2023-04-01T19:45:48.333Z,98814.53
2023-04-01T19:48:39.778Z,98824.28
2023-04-01T19:51:13.779Z,98818.97
2023-04-01T19:53:52.787Z,98825.88
2023-04-01T19:56:27.436Z,98838.63
2023-04-01T19:59:02.890Z,98850.50
2023-04-01T20:01:44.752Z,98846.50
2023-04-01T20:04:18.990Z,98859.56
2023-04-01T20:06:55.230Z,98866.31
2023-04-01T20:09:50.237Z,98876.28
2023-04-01T20:12:35.634Z,98881.06
2023-04-01T20:15:08.824Z,98889.97
2023-04-01T20:17:46.120Z,98903.63
2023-04-01T20:20:24.547Z,98904.09
2023-04-01T20:23:06.630Z,98917.28
2023-04-01T20:25:45.958Z,98922.50
2023-04-01T20:28:25.576Z,98940.94
2023-04-01T20:31:26.228Z,98935.97
2023-04-01T20:34:11.645Z,98952.47
2023-04-01T20:36:56.028Z,98965.00
2023-04-01T20:39:56.404Z,98965.50
2023-04-01T20:42:44.895Z,98963.34
2023-04-01T20:45:33.974Z,98969.16
2023-04-01T20:48:22.963Z,98974.88
2023-04-01T20:50:55.832Z,98979.88
2023-04-01T20:53:33.424Z,98999.88
2023-04-01T20:56:19.267Z,99003.88
2023-04-01T20:58:58.372Z,99003.88
2023-04-01T21:01:45.517Z,99005.28
2023-04-01T21:04:27.301Z,99007.66
2023-04-01T21:07:10.117Z,99022.59
2023-04-01T21:10:04.633Z,99030.41
2023-04-01T21:12:43.671Z,99034.69
2023-04-01T21:15:31.212Z,99032.09
2023-04-01T21:18:14.110Z,99045.84
2023-04-01T21:20:58.708Z,99041.56
2023-04-01T21:23:43.371Z,99055.22
2023-04-01T21:26:33.800Z,99054.03
2023-04-01T21:29:23.551Z,99057.91
2023-04-01T21:32:10.387Z,99072.59
2023-04-01T21:34:59.212Z,99068.75
2023-04-01T21:37:46.896Z,99086.38
2023-04-01T21:40:35.235Z,99091.31
2023-04-01T21:43:16.832Z,99095.91
2023-04-01T21:46:04.383Z,99097.50
2023-04-01T21:49:00.423Z,99102.53
2023-04-01T21:51:58.899Z,99102.28
2023-04-01T21:54:59.506Z,99112.63
2023-04-01T21:58:11.664Z,99124.41
2023-04-01T22:00:42.605Z,99132.06
2023-04-01T22:03:39.778Z,99143.38
2023-04-01T22:06:19.084Z,99136.22
2023-04-01T22:09:04.316Z,99150.03
2023-04-01T22:11:55.549Z,99153.44
2023-04-01T22:14:33.168Z,99159.31
2023-04-01T22:17:06.968Z,99165.91
2023-04-01T22:19:47.805Z,99169.28
2023-04-01T22:22:25.171Z,99168.78
2023-04-01T22:25:08.586Z,99184.38
2023-04-01T22:27:45.541Z,99189.22
2023-04-01T22:30:24.482Z,99196.72
2023-04-01T22:33:01.467Z,99208.53
2023-04-01T22:35:39.567Z,99214.34
2023-04-01T22:38:22.993Z,99205.09
2023-04-01T22:41:04.247Z,99221.78
2023-04-01T22:43:43.404Z,99211.91
2023-04-01T22:46:31.275Z,99219.34
2023-04-01T22:49:07.156Z,99226.88
2023-04-01T22:51:46.232Z,99228.59
2023-04-01T22:54:23.233Z,99232.53
2023-04-01T22:56:59.406Z,99240.66
2023-04-01T22:59:38.840Z,99239.22
2023-04-01T23:02:15.133Z,99247.75
2023-04-01T23:04:49.283Z,99246.16
2023-04-01T23:07:34.521Z,99252.56
2023-04-01T23:10:05.806Z,99258.16
2023-04-01T23:12:38.389Z,99265.16
2023-04-01T23:15:09.294Z,99263.78
2023-04-01T23:18:13.960Z,99267.63
2023-04-01T23:21:03.034Z,99274.03
2023-04-01T23:23:45.741Z,99281.38
2023-04-01T23:26:22.466Z,99283.25
2023-04-01T23:28:56.967Z,99286.13
2023-04-01T23:31:39.158Z,99288.19
2023-04-01T23:34:28.642Z,99292.78
2023-04-01T23:37:01.911Z,99298.22
2023-04-01T23:39:36.819Z,99301.09
2023-04-01T23:42:09.747Z,99320.72
2023-04-01T23:44:42.865Z,99326.50
2023-04-01T23:47:18.099Z,99320.09
2023-04-01T23:49:50.826Z,99333.25
2023-04-01T23:52:25.001Z,99331.19
2023-04-01T23:54:58.555Z,99338.28
2023-04-01T23:57:32.772Z,99342.75
